sensor_id;sensor_type;location;lat;lon;timestamp;temperature;humidity
488;DHT22;16586;48.976;9.584;2023-04-06T00:00:01;3.40;39.30
488;DHT22;16586;48.976;9.584;2023-04-06T00:02:29;3.40;39.50
488;DHT22;16586;48.976;9.584;2023-04-06T00:04:56;3.30;39.80
488;DHT22;16586;48.976;9.584;2023-04-06T00:07:23;3.20;40.00
488;DHT22;16586;48.976;9.584;2023-04-06T00:09:49;3.10;40.30
488;DHT22;16586;48.976;9.584;2023-04-06T00:12:16;3.20;40.50
488;DHT22;16586;48.976;9.584;2023-04-06T00:14:43;3.10;40.50
488;DHT22;16586;48.976;9.584;2023-04-06T00:17:10;3.10;40.50
488;DHT22;16586;48.976;9.584;2023-04-06T00:19:38;3.00;40.60
488;DHT22;16586;48.976;9.584;2023-04-06T00:22:05;3.10;40.80
488;DHT22;16586;48.976;9.584;2023-04-06T00:24:31;3.10;40.60
488;DHT22;16586;48.976;9.584;2023-04-06T00:26:58;3.00;40.80
488;DHT22;16586;48.976;9.584;2023-04-06T00:29:25;3.00;40.90
488;DHT22;16586;48.976;9.584;2023-04-06T00:31:52;3.00;40.80
488;DHT22;16586;48.976;9.584;2023-04-06T00:34:18;3.00;41.00
488;DHT22;16586;48.976;9.584;2023-04-06T00:36:47;3.00;40.90
488;DHT22;16586;48.976;9.584;2023-04-06T00:39:13;3.00;41.00
488;DHT22;16586;48.976;9.584;2023-04-06T00:41:46;2.90;41.00
488;DHT22;16586;48.976;9.584;2023-04-06T00:44:13;2.90;41.20
488;DHT22;16586;48.976;9.584;2023-04-06T00:46:39;2.90;41.50
488;DHT22;16586;48.976;9.584;2023-04-06T00:49:06;3.00;41.50
488;DHT22;16586;48.976;9.584;2023-04-06T00:51:33;3.00;41.00
488;DHT22;16586;48.976;9.584;2023-04-06T00:54:01;2.90;40.90
488;DHT22;16586;48.976;9.584;2023-04-06T00:56:28;2.80;41.00
488;DHT22;16586;48.976;9.584;2023-04-06T00:58:55;2.80;41.30
488;DHT22;16586;48.976;9.584;2023-04-06T01:01:23;2.80;41.40
488;DHT22;16586;48.976;9.584;2023-04-06T01:03:51;2.70;41.40
488;DHT22;16586;48.976;9.584;2023-04-06T01:06:17;2.70;41.50
488;DHT22;16586;48.976;9.584;2023-04-06T01:08:44;2.70;41.50
488;DHT22;16586;48.976;9.584;2023-04-06T01:11:12;2.70;41.50
488;DHT22;16586;48.976;9.584;2023-04-06T01:13:39;2.80;41.50
488;DHT22;16586;48.976;9.584;2023-04-06T01:16:08;2.80;41.40
488;DHT22;16586;48.976;9.584;2023-04-06T01:18:37;2.80;41.40
488;DHT22;16586;48.976;9.584;2023-04-06T01:21:05;2.70;41.30
488;DHT22;16586;48.976;9.584;2023-04-06T01:23:35;2.70;41.30
488;DHT22;16586;48.976;9.584;2023-04-06T01:26:02;2.70;41.40
488;DHT22;16586;48.976;9.584;2023-04-06T01:28:29;2.70;41.50
488;DHT22;16586;48.976;9.584;2023-04-06T01:30:55;2.60;41.40
488;DHT22;16586;48.976;9.584;2023-04-06T01:33:22;2.70;41.40
488;DHT22;16586;48.976;9.584;2023-04-06T01:35:49;2.70;41.50
488;DHT22;16586;48.976;9.584;2023-04-06T01:38:16;2.70;41.40
488;DHT22;16586;48.976;9.584;2023-04-06T01:40:44;2.60;41.30
488;DHT22;16586;48.976;9.584;2023-04-06T01:43:10;2.50;41.60
488;DHT22;16586;48.976;9.584;2023-04-06T01:45:37;2.50;41.60
488;DHT22;16586;48.976;9.584;2023-04-06T01:48:04;2.50;41.70
488;DHT22;16586;48.976;9.584;2023-04-06T01:50:31;2.50;41.90
488;DHT22;16586;48.976;9.584;2023-04-06T01:52:58;2.50;41.80
488;DHT22;16586;48.976;9.584;2023-04-06T01:55:25;2.50;41.90
488;DHT22;16586;48.976;9.584;2023-04-06T01:57:53;2.40;41.80
488;DHT22;16586;48.976;9.584;2023-04-06T02:00:20;2.40;41.80
488;DHT22;16586;48.976;9.584;2023-04-06T02:02:46;2.40;42.10
488;DHT22;16586;48.976;9.584;2023-04-06T02:05:13;2.40;42.10
488;DHT22;16586;48.976;9.584;2023-04-06T02:07:40;2.30;42.00
488;DHT22;16586;48.976;9.584;2023-04-06T02:10:11;2.30;42.20
488;DHT22;16586;48.976;9.584;2023-04-06T02:12:38;2.20;42.30
488;DHT22;16586;48.976;9.584;2023-04-06T02:15:07;2.20;42.40
488;DHT22;16586;48.976;9.584;2023-04-06T02:17:34;2.30;42.50
488;DHT22;16586;48.976;9.584;2023-04-06T02:20:01;2.30;42.40
488;DHT22;16586;48.976;9.584;2023-04-06T02:22:28;2.20;42.40
488;DHT22;16586;48.976;9.584;2023-04-06T02:24:54;2.20;42.40
488;DHT22;16586;48.976;9.584;2023-04-06T02:27:21;2.30;42.50
488;DHT22;16586;48.976;9.584;2023-04-06T02:29:48;2.20;42.40
488;DHT22;16586;48.976;9.584;2023-04-06T02:32:16;2.20;42.50
488;DHT22;16586;48.976;9.584;2023-04-06T02:34:43;2.20;42.60
488;DHT22;16586;48.976;9.584;2023-04-06T02:37:10;2.20;42.40
488;DHT22;16586;48.976;9.584;2023-04-06T02:39:37;2.20;42.20
488;DHT22;16586;48.976;9.584;2023-04-06T02:42:03;2.10;42.40
488;DHT22;16586;48.976;9.584;2023-04-06T02:44:30;2.10;42.30
488;DHT22;16586;48.976;9.584;2023-04-06T02:46:57;2.00;42.80
488;DHT22;16586;48.976;9.584;2023-04-06T02:49:25;2.00;42.80
488;DHT22;16586;48.976;9.584;2023-04-06T02:51:52;2.10;42.80
488;DHT22;16586;48.976;9.584;2023-04-06T02:54:19;2.10;42.70
488;DHT22;16586;48.976;9.584;2023-04-06T02:56:45;2.00;42.50
488;DHT22;16586;48.976;9.584;2023-04-06T02:59:12;1.90;42.70
488;DHT22;16586;48.976;9.584;2023-04-06T03:01:39;1.90;42.90
488;DHT22;16586;48.976;9.584;2023-04-06T03:04:06;1.80;43.20
488;DHT22;16586;48.976;9.584;2023-04-06T03:06:34;1.80;43.50
488;DHT22;16586;48.976;9.584;2023-04-06T03:09:00;1.80;43.40
488;DHT22;16586;48.976;9.584;2023-04-06T03:11:27;1.90;43.30
488;DHT22;16586;48.976;9.584;2023-04-06T03:13:54;1.80;43.20
488;DHT22;16586;48.976;9.584;2023-04-06T03:16:21;1.80;43.40
488;DHT22;16586;48.976;9.584;2023-04-06T03:18:47;1.80;43.40
488;DHT22;16586;48.976;9.584;2023-04-06T03:21:14;1.80;43.40
488;DHT22;16586;48.976;9.584;2023-04-06T03:23:42;1.80;43.50
488;DHT22;16586;48.976;9.584;2023-04-06T03:26:09;1.80;43.40
488;DHT22;16586;48.976;9.584;2023-04-06T03:28:36;1.80;43.40
488;DHT22;16586;48.976;9.584;2023-04-06T03:31:03;1.80;43.30
488;DHT22;16586;48.976;9.584;2023-04-06T03:33:30;1.80;43.00
488;DHT22;16586;48.976;9.584;2023-04-06T03:35:57;1.80;43.00
488;DHT22;16586;48.976;9.584;2023-04-06T03:38:23;1.70;43.10
488;DHT22;16586;48.976;9.584;2023-04-06T03:40:51;1.70;43.30
488;DHT22;16586;48.976;9.584;2023-04-06T03:43:18;1.60;43.50
488;DHT22;16586;48.976;9.584;2023-04-06T03:45:45;1.60;43.70
488;DHT22;16586;48.976;9.584;2023-04-06T03:48:12;1.60;43.90
488;DHT22;16586;48.976;9.584;2023-04-06T03:50:38;1.60;43.80
488;DHT22;16586;48.976;9.584;2023-04-06T03:53:05;1.60;43.80
488;DHT22;16586;48.976;9.584;2023-04-06T03:55:32;1.60;44.00
488;DHT22;16586;48.976;9.584;2023-04-06T03:58:00;1.60;44.00
488;DHT22;16586;48.976;9.584;2023-04-06T04:00:27;1.60;44.00
488;DHT22;16586;48.976;9.584;2023-04-06T04:02:54;1.60;44.00
488;DHT22;16586;48.976;9.584;2023-04-06T04:05:21;1.60;43.90
488;DHT22;16586;48.976;9.584;2023-04-06T04:07:50;1.60;44.00
488;DHT22;16586;48.976;9.584;2023-04-06T04:10:17;1.50;44.10
488;DHT22;16586;48.976;9.584;2023-04-06T04:12:44;1.50;44.30
488;DHT22;16586;48.976;9.584;2023-04-06T04:15:12;1.40;44.20
488;DHT22;16586;48.976;9.584;2023-04-06T04:17:39;1.40;44.40
488;DHT22;16586;48.976;9.584;2023-04-06T04:20:07;1.40;44.60
488;DHT22;16586;48.976;9.584;2023-04-06T04:22:34;1.40;44.60
488;DHT22;16586;48.976;9.584;2023-04-06T04:25:00;1.40;44.60
488;DHT22;16586;48.976;9.584;2023-04-06T04:27:27;1.30;44.60
488;DHT22;16586;48.976;9.584;2023-04-06T04:29:54;1.40;44.30
488;DHT22;16586;48.976;9.584;2023-04-06T04:32:22;1.40;43.90
488;DHT22;16586;48.976;9.584;2023-04-06T04:34:52;1.30;44.50
488;DHT22;16586;48.976;9.584;2023-04-06T04:37:19;1.30;44.50
488;DHT22;16586;48.976;9.584;2023-04-06T04:39:46;1.30;44.60
488;DHT22;16586;48.976;9.584;2023-04-06T04:42:12;1.30;44.60
488;DHT22;16586;48.976;9.584;2023-04-06T04:44:40;1.30;44.60
488;DHT22;16586;48.976;9.584;2023-04-06T04:47:06;1.20;44.50
488;DHT22;16586;48.976;9.584;2023-04-06T04:49:34;1.20;44.50
488;DHT22;16586;48.976;9.584;2023-04-06T04:52:01;1.20;44.60
488;DHT22;16586;48.976;9.584;2023-04-06T04:54:28;1.20;44.50
488;DHT22;16586;48.976;9.584;2023-04-06T04:56:55;1.20;44.50
488;DHT22;16586;48.976;9.584;2023-04-06T04:59:22;1.20;44.50
488;DHT22;16586;48.976;9.584;2023-04-06T05:01:48;1.20;44.50
488;DHT22;16586;48.976;9.584;2023-04-06T05:04:15;1.20;44.50
488;DHT22;16586;48.976;9.584;2023-04-06T05:06:43;1.20;44.50
488;DHT22;16586;48.976;9.584;2023-04-06T05:09:10;1.20;44.50
488;DHT22;16586;48.976;9.584;2023-04-06T05:11:37;1.20;44.50
488;DHT22;16586;48.976;9.584;2023-04-06T05:14:03;1.20;44.70
488;DHT22;16586;48.976;9.584;2023-04-06T05:16:32;1.20;44.90
488;DHT22;16586;48.976;9.584;2023-04-06T05:18:59;1.20;44.80
488;DHT22;16586;48.976;9.584;2023-04-06T05:21:25;1.20;44.80
488;DHT22;16586;48.976;9.584;2023-04-06T05:23:54;1.20;44.70
488;DHT22;16586;48.976;9.584;2023-04-06T05:26:21;1.20;44.90
488;DHT22;16586;48.976;9.584;2023-04-06T05:28:48;1.30;44.90
488;DHT22;16586;48.976;9.584;2023-04-06T05:31:15;1.30;44.60
488;DHT22;16586;48.976;9.584;2023-04-06T05:33:43;1.30;44.70
488;DHT22;16586;48.976;9.584;2023-04-06T05:36:10;1.30;45.10
488;DHT22;16586;48.976;9.584;2023-04-06T05:38:37;1.30;45.00
488;DHT22;16586;48.976;9.584;2023-04-06T05:41:05;1.40;44.80
488;DHT22;16586;48.976;9.584;2023-04-06T05:43:32;1.30;45.00
488;DHT22;16586;48.976;9.584;2023-04-06T05:45:58;1.40;45.00
488;DHT22;16586;48.976;9.584;2023-04-06T05:48:25;1.40;45.30
488;DHT22;16586;48.976;9.584;2023-04-06T05:50:52;1.30;45.20
488;DHT22;16586;48.976;9.584;2023-04-06T05:53:19;1.40;45.60
488;DHT22;16586;48.976;9.584;2023-04-06T05:55:46;1.50;45.70
488;DHT22;16586;48.976;9.584;2023-04-06T05:58:15;1.50;45.60
488;DHT22;16586;48.976;9.584;2023-04-06T06:00:42;1.50;45.80
488;DHT22;16586;48.976;9.584;2023-04-06T06:03:11;1.60;46.00
488;DHT22;16586;48.976;9.584;2023-04-06T06:05:38;1.60;45.90
488;DHT22;16586;48.976;9.584;2023-04-06T06:08:05;1.60;45.80
488;DHT22;16586;48.976;9.584;2023-04-06T06:10:32;1.60;46.00
488;DHT22;16586;48.976;9.584;2023-04-06T06:12:58;1.70;45.90
488;DHT22;16586;48.976;9.584;2023-04-06T06:15:26;1.70;46.00
488;DHT22;16586;48.976;9.584;2023-04-06T06:17:53;1.80;46.10
488;DHT22;16586;48.976;9.584;2023-04-06T06:20:20;1.80;45.90
488;DHT22;16586;48.976;9.584;2023-04-06T06:22:46;1.80;46.10
488;DHT22;16586;48.976;9.584;2023-04-06T06:25:13;1.80;46.10
488;DHT22;16586;48.976;9.584;2023-04-06T06:27:41;1.70;46.40
488;DHT22;16586;48.976;9.584;2023-04-06T06:30:08;1.80;46.50
488;DHT22;16586;48.976;9.584;2023-04-06T06:32:37;1.80;46.30
488;DHT22;16586;48.976;9.584;2023-04-06T06:35:04;1.80;46.50
488;DHT22;16586;48.976;9.584;2023-04-06T06:37:31;1.80;46.80
488;DHT22;16586;48.976;9.584;2023-04-06T06:39:58;1.80;47.00
488;DHT22;16586;48.976;9.584;2023-04-06T06:42:24;1.90;46.90
488;DHT22;16586;48.976;9.584;2023-04-06T06:44:52;2.00;46.90
488;DHT22;16586;48.976;9.584;2023-04-06T06:47:18;2.10;46.80
488;DHT22;16586;48.976;9.584;2023-04-06T06:49:46;2.20;46.60
488;DHT22;16586;48.976;9.584;2023-04-06T06:52:13;2.20;46.70
488;DHT22;16586;48.976;9.584;2023-04-06T06:54:40;2.40;46.60
488;DHT22;16586;48.976;9.584;2023-04-06T06:57:07;2.50;46.20
488;DHT22;16586;48.976;9.584;2023-04-06T06:59:33;2.50;46.20
488;DHT22;16586;48.976;9.584;2023-04-06T07:02:00;2.50;46.10
488;DHT22;16586;48.976;9.584;2023-04-06T07:04:27;2.60;46.10
488;DHT22;16586;48.976;9.584;2023-04-06T07:06:55;2.70;46.20
488;DHT22;16586;48.976;9.584;2023-04-06T07:09:22;2.80;46.00
488;DHT22;16586;48.976;9.584;2023-04-06T07:11:48;2.80;46.10
488;DHT22;16586;48.976;9.584;2023-04-06T07:14:15;2.80;46.00
488;DHT22;16586;48.976;9.584;2023-04-06T07:16:42;2.80;46.30
488;DHT22;16586;48.976;9.584;2023-04-06T07:19:10;2.90;46.50
488;DHT22;16586;48.976;9.584;2023-04-06T07:21:37;2.90;46.70
488;DHT22;16586;48.976;9.584;2023-04-06T07:24:05;3.00;46.40
488;DHT22;16586;48.976;9.584;2023-04-06T07:26:32;3.10;46.50
488;DHT22;16586;48.976;9.584;2023-04-06T07:28:59;3.10;46.40
488;DHT22;16586;48.976;9.584;2023-04-06T07:31:26;3.30;46.20
488;DHT22;16586;48.976;9.584;2023-04-06T07:33:52;3.50;46.30
488;DHT22;16586;48.976;9.584;2023-04-06T07:36:20;3.60;45.50
488;DHT22;16586;48.976;9.584;2023-04-06T07:38:47;3.70;45.30
488;DHT22;16586;48.976;9.584;2023-04-06T07:41:15;3.80;45.00
488;DHT22;16586;48.976;9.584;2023-04-06T07:43:42;3.90;44.80
488;DHT22;16586;48.976;9.584;2023-04-06T07:46:09;4.10;44.60
488;DHT22;16586;48.976;9.584;2023-04-06T07:48:36;4.10;44.20
488;DHT22;16586;48.976;9.584;2023-04-06T07:51:04;4.10;44.50
488;DHT22;16586;48.976;9.584;2023-04-06T07:53:31;4.30;44.60
488;DHT22;16586;48.976;9.584;2023-04-06T07:55:58;4.40;44.50
488;DHT22;16586;48.976;9.584;2023-04-06T07:58:26;4.40;44.40
488;DHT22;16586;48.976;9.584;2023-04-06T08:00:53;4.60;44.40
488;DHT22;16586;48.976;9.584;2023-04-06T08:03:20;4.70;44.10
488;DHT22;16586;48.976;9.584;2023-04-06T08:05:51;4.80;44.10
488;DHT22;16586;48.976;9.584;2023-04-06T08:08:18;4.90;44.30
488;DHT22;16586;48.976;9.584;2023-04-06T08:10:45;5.10;44.30
488;DHT22;16586;48.976;9.584;2023-04-06T08:13:11;5.20;44.00
488;DHT22;16586;48.976;9.584;2023-04-06T08:15:39;5.30;43.70
488;DHT22;16586;48.976;9.584;2023-04-06T08:18:06;5.50;43.60
488;DHT22;16586;48.976;9.584;2023-04-06T08:20:33;5.60;44.00
488;DHT22;16586;48.976;9.584;2023-04-06T08:23:00;5.70;42.90
488;DHT22;16586;48.976;9.584;2023-04-06T08:25:26;5.90;42.40
488;DHT22;16586;48.976;9.584;2023-04-06T08:27:53;5.90;42.00
488;DHT22;16586;48.976;9.584;2023-04-06T08:30:20;6.10;41.90
488;DHT22;16586;48.976;9.584;2023-04-06T08:32:48;6.20;41.70
488;DHT22;16586;48.976;9.584;2023-04-06T08:35:15;6.30;41.40
488;DHT22;16586;48.976;9.584;2023-04-06T08:37:42;6.40;41.20
488;DHT22;16586;48.976;9.584;2023-04-06T08:40:09;6.60;40.70
488;DHT22;16586;48.976;9.584;2023-04-06T08:42:40;6.70;40.20
488;DHT22;16586;48.976;9.584;2023-04-06T08:45:08;6.80;40.20
488;DHT22;16586;48.976;9.584;2023-04-06T08:47:36;7.00;40.40
488;DHT22;16586;48.976;9.584;2023-04-06T08:50:05;7.20;40.20
488;DHT22;16586;48.976;9.584;2023-04-06T08:52:32;7.30;39.50
488;DHT22;16586;48.976;9.584;2023-04-06T08:55:00;7.30;34.10
488;DHT22;16586;48.976;9.584;2023-04-06T08:57:27;7.40;35.80
488;DHT22;16586;48.976;9.584;2023-04-06T08:59:54;7.60;33.50
488;DHT22;16586;48.976;9.584;2023-04-06T09:02:27;7.70;30.90
488;DHT22;16586;48.976;9.584;2023-04-06T09:04:54;7.80;32.00
488;DHT22;16586;48.976;9.584;2023-04-06T09:07:22;8.00;32.20
488;DHT22;16586;48.976;9.584;2023-04-06T09:09:49;8.20;31.40
488;DHT22;16586;48.976;9.584;2023-04-06T09:12:24;8.40;30.90
488;DHT22;16586;48.976;9.584;2023-04-06T09:14:52;8.60;29.90
488;DHT22;16586;48.976;9.584;2023-04-06T09:17:22;8.70;30.00
488;DHT22;16586;48.976;9.584;2023-04-06T09:19:48;8.90;30.30
488;DHT22;16586;48.976;9.584;2023-04-06T09:22:16;9.00;28.90
488;DHT22;16586;48.976;9.584;2023-04-06T09:24:46;9.20;27.70
488;DHT22;16586;48.976;9.584;2023-04-06T09:27:13;9.40;28.30
488;DHT22;16586;48.976;9.584;2023-04-06T09:29:40;9.50;26.70
488;DHT22;16586;48.976;9.584;2023-04-06T09:32:08;9.60;25.40
488;DHT22;16586;48.976;9.584;2023-04-06T09:34:37;9.70;25.00
488;DHT22;16586;48.976;9.584;2023-04-06T09:37:12;9.80;25.70
488;DHT22;16586;48.976;9.584;2023-04-06T09:39:39;9.90;25.80
488;DHT22;16586;48.976;9.584;2023-04-06T09:42:08;9.90;24.70
488;DHT22;16586;48.976;9.584;2023-04-06T09:44:35;10.10;23.40
488;DHT22;16586;48.976;9.584;2023-04-06T09:47:05;10.30;23.70
488;DHT22;16586;48.976;9.584;2023-04-06T09:49:33;10.40;22.60
488;DHT22;16586;48.976;9.584;2023-04-06T09:52:02;10.40;22.30
488;DHT22;16586;48.976;9.584;2023-04-06T09:54:30;10.40;21.50
488;DHT22;16586;48.976;9.584;2023-04-06T09:57:01;10.60;22.60
488;DHT22;16586;48.976;9.584;2023-04-06T09:59:38;10.90;21.90
488;DHT22;16586;48.976;9.584;2023-04-06T10:02:15;11.10;22.60
488;DHT22;16586;48.976;9.584;2023-04-06T10:04:52;11.40;22.90
488;DHT22;16586;48.976;9.584;2023-04-06T10:07:20;11.70;23.50
488;DHT22;16586;48.976;9.584;2023-04-06T10:09:47;12.00;23.20
488;DHT22;16586;48.976;9.584;2023-04-06T10:12:15;12.50;22.20
488;DHT22;16586;48.976;9.584;2023-04-06T10:14:44;12.70;21.80
488;DHT22;16586;48.976;9.584;2023-04-06T10:17:11;13.20;22.10
488;DHT22;16586;48.976;9.584;2023-04-06T10:19:47;13.60;20.10
488;DHT22;16586;48.976;9.584;2023-04-06T10:22:24;14.10;19.30
488;DHT22;16586;48.976;9.584;2023-04-06T10:24:52;14.60;18.80
488;DHT22;16586;48.976;9.584;2023-04-06T10:27:27;15.20;17.70
488;DHT22;16586;48.976;9.584;2023-04-06T10:30:01;16.10;17.10
488;DHT22;16586;48.976;9.584;2023-04-06T10:32:33;17.30;15.10
488;DHT22;16586;48.976;9.584;2023-04-06T10:35:08;18.10;14.20
488;DHT22;16586;48.976;9.584;2023-04-06T10:37:51;18.70;13.60
488;DHT22;16586;48.976;9.584;2023-04-06T10:40:19;20.20;16.10
488;DHT22;16586;48.976;9.584;2023-04-06T10:42:46;21.70;11.50
488;DHT22;16586;48.976;9.584;2023-04-06T10:45:21;22.90;10.70
488;DHT22;16586;48.976;9.584;2023-04-06T10:47:48;24.30;11.00
488;DHT22;16586;48.976;9.584;2023-04-06T10:50:15;25.60;10.00
488;DHT22;16586;48.976;9.584;2023-04-06T10:52:44;26.30;7.30
488;DHT22;16586;48.976;9.584;2023-04-06T10:55:12;27.00;8.60
488;DHT22;16586;48.976;9.584;2023-04-06T10:57:39;28.20;8.60
488;DHT22;16586;48.976;9.584;2023-04-06T11:00:07;29.40;7.70
488;DHT22;16586;48.976;9.584;2023-04-06T11:02:36;30.30;5.50
488;DHT22;16586;48.976;9.584;2023-04-06T11:05:03;31.10;4.70
488;DHT22;16586;48.976;9.584;2023-04-06T11:07:30;31.70;4.90
488;DHT22;16586;48.976;9.584;2023-04-06T11:09:57;32.40;3.30
488;DHT22;16586;48.976;9.584;2023-04-06T11:12:24;32.50;3.10
488;DHT22;16586;48.976;9.584;2023-04-06T11:14:55;31.80;2.50
488;DHT22;16586;48.976;9.584;2023-04-06T11:17:27;31.30;3.30
488;DHT22;16586;48.976;9.584;2023-04-06T11:19:55;31.00;3.10
488;DHT22;16586;48.976;9.584;2023-04-06T11:22:22;30.80;3.00
488;DHT22;16586;48.976;9.584;2023-04-06T11:24:49;31.00;3.10
488;DHT22;16586;48.976;9.584;2023-04-06T11:27:16;30.90;3.00
488;DHT22;16586;48.976;9.584;2023-04-06T11:29:43;30.50;2.90
488;DHT22;16586;48.976;9.584;2023-04-06T11:32:11;30.30;3.00
488;DHT22;16586;48.976;9.584;2023-04-06T11:34:39;30.80;3.00
488;DHT22;16586;48.976;9.584;2023-04-06T11:37:09;31.10;2.10
488;DHT22;16586;48.976;9.584;2023-04-06T11:39:39;31.20;2.70
488;DHT22;16586;48.976;9.584;2023-04-06T11:42:06;31.10;2.80
488;DHT22;16586;48.976;9.584;2023-04-06T11:44:34;31.90;2.70
488;DHT22;16586;48.976;9.584;2023-04-06T11:47:02;33.10;3.10
488;DHT22;16586;48.976;9.584;2023-04-06T11:49:29;34.50;2.30
488;DHT22;16586;48.976;9.584;2023-04-06T11:51:56;35.50;1.20
488;DHT22;16586;48.976;9.584;2023-04-06T11:54:32;36.00;1.00
488;DHT22;16586;48.976;9.584;2023-04-06T11:56:59;34.70;1.00
488;DHT22;16586;48.976;9.584;2023-04-06T11:59:26;33.70;1.00
488;DHT22;16586;48.976;9.584;2023-04-06T12:01:53;32.20;1.00
488;DHT22;16586;48.976;9.584;2023-04-06T12:04:20;30.60;1.00
488;DHT22;16586;48.976;9.584;2023-04-06T12:06:48;29.00;2.10
488;DHT22;16586;48.976;9.584;2023-04-06T12:09:15;27.10;2.80
488;DHT22;16586;48.976;9.584;2023-04-06T12:11:44;25.10;4.80
488;DHT22;16586;48.976;9.584;2023-04-06T12:14:10;23.40;4.90
488;DHT22;16586;48.976;9.584;2023-04-06T12:16:37;22.30;5.50
488;DHT22;16586;48.976;9.584;2023-04-06T12:19:04;21.50;5.90
488;DHT22;16586;48.976;9.584;2023-04-06T12:21:32;21.10;7.00
488;DHT22;16586;48.976;9.584;2023-04-06T12:24:00;20.80;6.90
488;DHT22;16586;48.976;9.584;2023-04-06T12:26:27;20.30;6.90
488;DHT22;16586;48.976;9.584;2023-04-06T12:28:55;19.90;7.50
488;DHT22;16586;48.976;9.584;2023-04-06T12:31:23;19.50;7.80
488;DHT22;16586;48.976;9.584;2023-04-06T12:33:51;19.20;8.30
488;DHT22;16586;48.976;9.584;2023-04-06T12:36:19;18.90;8.20
488;DHT22;16586;48.976;9.584;2023-04-06T12:38:47;18.80;8.80
488;DHT22;16586;48.976;9.584;2023-04-06T12:41:14;18.90;9.60
488;DHT22;16586;48.976;9.584;2023-04-06T12:43:42;18.80;8.10
488;DHT22;16586;48.976;9.584;2023-04-06T12:46:10;18.70;8.50
488;DHT22;16586;48.976;9.584;2023-04-06T12:48:37;18.40;8.00
488;DHT22;16586;48.976;9.584;2023-04-06T12:51:05;18.00;8.50
488;DHT22;16586;48.976;9.584;2023-04-06T12:53:33;17.80;8.40
488;DHT22;16586;48.976;9.584;2023-04-06T12:56:01;17.60;8.70
488;DHT22;16586;48.976;9.584;2023-04-06T12:58:28;17.50;9.00
488;DHT22;16586;48.976;9.584;2023-04-06T13:00:57;17.60;9.20
488;DHT22;16586;48.976;9.584;2023-04-06T13:03:29;17.70;9.70
488;DHT22;16586;48.976;9.584;2023-04-06T13:05:56;17.90;10.10
488;DHT22;16586;48.976;9.584;2023-04-06T13:08:23;18.20;8.90
488;DHT22;16586;48.976;9.584;2023-04-06T13:10:51;17.90;9.90
488;DHT22;16586;48.976;9.584;2023-04-06T13:13:22;17.90;9.80
488;DHT22;16586;48.976;9.584;2023-04-06T13:15:51;17.80;10.00
488;DHT22;16586;48.976;9.584;2023-04-06T13:18:18;17.80;9.70
488;DHT22;16586;48.976;9.584;2023-04-06T13:20:47;17.90;10.00
488;DHT22;16586;48.976;9.584;2023-04-06T13:23:14;18.10;9.80
488;DHT22;16586;48.976;9.584;2023-04-06T13:25:41;18.20;9.30
488;DHT22;16586;48.976;9.584;2023-04-06T13:28:09;18.30;9.20
488;DHT22;16586;48.976;9.584;2023-04-06T13:30:35;18.40;9.10
488;DHT22;16586;48.976;9.584;2023-04-06T13:33:02;18.40;8.70
488;DHT22;16586;48.976;9.584;2023-04-06T13:35:30;18.30;9.30
488;DHT22;16586;48.976;9.584;2023-04-06T13:37:59;18.40;9.00
488;DHT22;16586;48.976;9.584;2023-04-06T13:40:25;18.60;8.10
488;DHT22;16586;48.976;9.584;2023-04-06T13:42:52;18.80;8.10
488;DHT22;16586;48.976;9.584;2023-04-06T13:45:19;19.20;8.70
488;DHT22;16586;48.976;9.584;2023-04-06T13:47:45;19.70;8.20
488;DHT22;16586;48.976;9.584;2023-04-06T13:50:12;20.10;8.30
488;DHT22;16586;48.976;9.584;2023-04-06T13:52:39;20.70;8.80
488;DHT22;16586;48.976;9.584;2023-04-06T13:55:08;21.90;9.10
488;DHT22;16586;48.976;9.584;2023-04-06T13:57:34;23.40;7.60
488;DHT22;16586;48.976;9.584;2023-04-06T14:00:02;24.60;6.30
488;DHT22;16586;48.976;9.584;2023-04-06T14:02:29;25.00;4.20
488;DHT22;16586;48.976;9.584;2023-04-06T14:04:56;25.10;4.90
488;DHT22;16586;48.976;9.584;2023-04-06T14:07:23;25.80;4.70
488;DHT22;16586;48.976;9.584;2023-04-06T14:09:50;26.00;4.70
488;DHT22;16586;48.976;9.584;2023-04-06T14:12:18;26.30;4.10
488;DHT22;16586;48.976;9.584;2023-04-06T14:14:45;25.40;3.20
488;DHT22;16586;48.976;9.584;2023-04-06T14:17:11;24.40;3.80
488;DHT22;16586;48.976;9.584;2023-04-06T14:19:38;23.80;4.70
488;DHT22;16586;48.976;9.584;2023-04-06T14:22:05;23.60;4.60
488;DHT22;16586;48.976;9.584;2023-04-06T14:24:32;23.20;4.70
488;DHT22;16586;48.976;9.584;2023-04-06T14:26:59;22.80;4.70
488;DHT22;16586;48.976;9.584;2023-04-06T14:29:27;22.60;5.60
488;DHT22;16586;48.976;9.584;2023-04-06T14:31:54;22.70;5.10
488;DHT22;16586;48.976;9.584;2023-04-06T14:34:25;23.30;6.20
488;DHT22;16586;48.976;9.584;2023-04-06T14:36:51;23.70;5.00
488;DHT22;16586;48.976;9.584;2023-04-06T14:39:18;24.30;5.60
488;DHT22;16586;48.976;9.584;2023-04-06T14:41:46;25.00;5.30
488;DHT22;16586;48.976;9.584;2023-04-06T14:44:13;25.00;3.30
488;DHT22;16586;48.976;9.584;2023-04-06T14:46:46;24.50;3.50
488;DHT22;16586;48.976;9.584;2023-04-06T14:49:13;23.60;3.30
488;DHT22;16586;48.976;9.584;2023-04-06T14:51:39;22.60;3.40
488;DHT22;16586;48.976;9.584;2023-04-06T14:54:07;21.80;4.00
488;DHT22;16586;48.976;9.584;2023-04-06T14:56:34;21.00;4.80
488;DHT22;16586;48.976;9.584;2023-04-06T14:59:01;20.40;5.00
488;DHT22;16586;48.976;9.584;2023-04-06T15:01:28;20.00;5.40
488;DHT22;16586;48.976;9.584;2023-04-06T15:03:56;19.90;6.60
488;DHT22;16586;48.976;9.584;2023-04-06T15:06:24;19.60;6.50
488;DHT22;16586;48.976;9.584;2023-04-06T15:08:51;19.20;6.30
488;DHT22;16586;48.976;9.584;2023-04-06T15:11:19;18.70;6.70
488;DHT22;16586;48.976;9.584;2023-04-06T15:13:46;18.30;6.80
488;DHT22;16586;48.976;9.584;2023-04-06T15:16:13;18.20;7.50
488;DHT22;16586;48.976;9.584;2023-04-06T15:18:40;18.10;7.00
488;DHT22;16586;48.976;9.584;2023-04-06T15:21:08;18.10;7.40
488;DHT22;16586;48.976;9.584;2023-04-06T15:23:35;17.80;7.50
488;DHT22;16586;48.976;9.584;2023-04-06T15:26:02;17.90;7.10
488;DHT22;16586;48.976;9.584;2023-04-06T15:28:29;17.60;6.90
488;DHT22;16586;48.976;9.584;2023-04-06T15:30:56;17.40;7.20
488;DHT22;16586;48.976;9.584;2023-04-06T15:33:23;17.00;6.90
488;DHT22;16586;48.976;9.584;2023-04-06T15:35:50;16.90;7.40
488;DHT22;16586;48.976;9.584;2023-04-06T15:38:18;17.10;7.30
488;DHT22;16586;48.976;9.584;2023-04-06T15:40:47;17.20;7.10
488;DHT22;16586;48.976;9.584;2023-04-06T15:43:15;17.30;7.20
488;DHT22;16586;48.976;9.584;2023-04-06T15:45:42;17.20;7.00
488;DHT22;16586;48.976;9.584;2023-04-06T15:48:08;17.10;7.00
488;DHT22;16586;48.976;9.584;2023-04-06T15:50:36;17.20;7.10
488;DHT22;16586;48.976;9.584;2023-04-06T15:53:03;17.20;7.00
488;DHT22;16586;48.976;9.584;2023-04-06T15:55:31;17.20;7.00
488;DHT22;16586;48.976;9.584;2023-04-06T15:57:58;17.20;7.00
488;DHT22;16586;48.976;9.584;2023-04-06T16:00:24;17.00;7.20
488;DHT22;16586;48.976;9.584;2023-04-06T16:02:53;17.00;6.90
488;DHT22;16586;48.976;9.584;2023-04-06T16:05:21;17.00;6.90
488;DHT22;16586;48.976;9.584;2023-04-06T16:07:48;17.00;7.80
488;DHT22;16586;48.976;9.584;2023-04-06T16:10:15;17.00;8.00
488;DHT22;16586;48.976;9.584;2023-04-06T16:12:43;17.10;7.90
488;DHT22;16586;48.976;9.584;2023-04-06T16:15:10;17.10;8.00
488;DHT22;16586;48.976;9.584;2023-04-06T16:17:37;17.10;7.80